createdAt,value
2018-03-04T00:00:54.215Z,62.58
2018-03-04T00:03:31.848Z,58.83
2018-03-04T00:06:04.691Z,59.60
2018-03-04T00:08:38.430Z,61.90
2018-03-04T00:11:09.138Z,61.75
2018-03-04T00:13:40.246Z,62.45
2018-03-04T00:16:11.893Z,63.80
2018-03-04T00:18:43.209Z,60.70
2018-03-04T00:21:13.914Z,63.65
2018-03-04T00:24:02.652Z,62.80
2018-03-04T00:26:40.549Z,62.45
2018-03-04T00:29:11.215Z,63.63
2018-03-04T00:31:42.579Z,64.65
2018-03-04T00:34:15.053Z,66.82
2018-03-04T00:36:47.572Z,64.43
2018-03-04T00:39:18.500Z,65.80
2018-03-04T00:41:50.397Z,64.80
2018-03-04T00:44:21.361Z,66.55
2018-03-04T00:46:53.672Z,65.47
2018-03-04T00:49:24.244Z,64.05
2018-03-04T00:51:59.539Z,63.80
2018-03-04T00:54:30.180Z,65.60
2018-03-04T00:57:02.021Z,64.18
2018-03-04T00:59:32.728Z,63.63
2018-03-04T01:02:03.523Z,62.80
2018-03-04T01:04:34.020Z,62.83
2018-03-04T01:07:05.838Z,66.72
2018-03-04T01:09:40.140Z,69.07
2018-03-04T01:12:11.564Z,72.93
2018-03-04T01:14:54.769Z,73.25
2018-03-04T01:17:26.133Z,69.68
2018-03-04T01:19:58.960Z,71.70
2018-03-04T01:22:29.555Z,72.30
2018-03-04T01:25:01.127Z,68.28
2018-03-04T01:27:32.112Z,72.93
2018-03-04T01:30:03.745Z,73.95
2018-03-04T01:32:36.085Z,72.25
2018-03-04T01:35:08.574Z,73.37
2018-03-04T01:37:39.529Z,72.05
2018-03-04T01:40:11.070Z,70.32
2018-03-04T01:42:42.966Z,71.35
2018-03-04T01:45:13.797Z,72.80
2018-03-04T01:47:45.010Z,71.45
2018-03-04T01:50:15.553Z,72.73
2018-03-04T01:52:47.877Z,69.10
2018-03-04T01:55:19.758Z,71.37
2018-03-04T01:57:52.521Z,73.18
2018-03-04T02:00:24.911Z,74.53
2018-03-04T02:02:55.949Z,70.60
2018-03-04T02:05:26.659Z,72.57
2018-03-04T02:07:59.879Z,73.15
2018-03-04T02:10:31.585Z,71.15
2018-03-04T02:13:02.190Z,72.03
2018-03-04T02:15:34.508Z,73.27
2018-03-04T02:18:07.005Z,72.87
2018-03-04T02:20:43.581Z,69.97
2018-03-04T02:23:14.127Z,70.95
2018-03-04T02:25:44.678Z,70.25
2018-03-04T02:28:18.992Z,69.55
2018-03-04T02:30:50.497Z,74.53
2018-03-04T02:33:23.699Z,74.15
2018-03-04T02:35:54.139Z,78.97
2018-03-04T02:38:25.944Z,72.70
2018-03-04T02:40:56.768Z,74.45
2018-03-04T02:43:27.405Z,71.87
2018-03-04T02:45:58.428Z,71.25
2018-03-04T02:48:29.708Z,72.43
2018-03-04T02:51:01.826Z,70.47
2018-03-04T02:53:36.423Z,73.20
2018-03-04T02:56:07.404Z,71.82
2018-03-04T02:58:42.054Z,75.05
2018-03-04T03:01:14.778Z,75.18
2018-03-04T03:03:50.568Z,73.95
2018-03-04T03:06:24.733Z,75.70
2018-03-04T03:08:57.017Z,74.72
2018-03-04T03:11:30.050Z,68.97
2018-03-04T03:14:03.248Z,74.53
2018-03-04T03:16:34.043Z,74.72
2018-03-04T03:19:06.269Z,75.07
2018-03-04T03:21:36.884Z,72.32
2018-03-04T03:24:11.123Z,72.62
2018-03-04T03:26:41.454Z,72.10
2018-03-04T03:29:12.136Z,72.68
2018-03-04T03:31:46.688Z,77.62
2018-03-04T03:34:24.095Z,88.32
2018-03-04T03:36:54.690Z,91.55
2018-03-04T03:39:28.387Z,83.32
2018-03-04T03:41:59.269Z,85.35
2018-03-04T03:44:32.471Z,86.93
2018-03-04T03:47:03.234Z,83.03
2018-03-04T03:49:33.575Z,84.13
2018-03-04T03:52:04.832Z,79.75
2018-03-04T03:54:36.788Z,82.90
2018-03-04T03:57:10.207Z,87.67
2018-03-04T03:59:42.763Z,92.53
2018-03-04T04:02:13.604Z,88.50
2018-03-04T04:04:45.122Z,85.75
2018-03-04T04:07:15.963Z,80.53
2018-03-04T04:09:47.321Z,79.63
2018-03-04T04:12:19.252Z,81.57
2018-03-04T04:14:49.678Z,84.30
2018-03-04T04:17:21.310Z,83.20
2018-03-04T04:19:53.859Z,81.87
2018-03-04T04:22:24.415Z,80.35
2018-03-04T04:24:58.257Z,78.25
2018-03-04T04:27:28.525Z,76.85
2018-03-04T04:30:01.656Z,77.43
2018-03-04T04:32:35.952Z,77.00
2018-03-04T04:35:07.204Z,87.17
2018-03-04T04:37:48.638Z,85.10
2018-03-04T04:40:24.425Z,92.03
2018-03-04T04:42:57.650Z,88.68
2018-03-04T04:45:29.564Z,88.90
2018-03-04T04:48:01.580Z,91.18
2018-03-04T04:50:32.860Z,88.80
2018-03-04T04:53:04.833Z,85.53
2018-03-04T04:55:38.416Z,82.07
2018-03-04T04:58:08.947Z,82.03
2018-03-04T05:00:40.184Z,77.72
2018-03-04T05:03:11.037Z,79.23
2018-03-04T05:05:41.926Z,77.20
2018-03-04T05:08:13.467Z,77.10
2018-03-04T05:10:45.900Z,77.18
2018-03-04T05:13:17.567Z,83.22
2018-03-04T05:15:47.839Z,80.38
2018-03-04T05:18:22.666Z,77.00
2018-03-04T05:20:54.851Z,81.50
2018-03-04T05:23:26.315Z,86.78
2018-03-04T05:25:56.694Z,87.25
2018-03-04T05:28:28.274Z,89.70
2018-03-04T05:31:02.124Z,91.78
2018-03-04T05:33:33.629Z,90.07
2018-03-04T05:36:06.894Z,93.18
2018-03-04T05:38:41.968Z,90.93
2018-03-04T05:41:13.698Z,89.60
2018-03-04T05:43:44.976Z,86.12
2018-03-04T05:46:18.953Z,83.97
2018-03-04T05:48:53.324Z,78.75
2018-03-04T05:51:35.704Z,83.90
2018-03-04T05:54:10.396Z,78.65
2018-03-04T05:56:42.159Z,80.20
2018-03-04T05:59:12.942Z,84.03
2018-03-04T06:01:44.757Z,79.60
2018-03-04T06:04:16.980Z,77.30
2018-03-04T06:06:49.916Z,78.50
2018-03-04T06:09:20.784Z,78.95
2018-03-04T06:11:51.295Z,75.78
2018-03-04T06:14:22.610Z,77.93
2018-03-04T06:16:55.244Z,82.35
2018-03-04T06:19:26.695Z,87.80
2018-03-04T06:22:01.095Z,87.75
2018-03-04T06:24:33.246Z,84.15
2018-03-04T06:27:05.103Z,83.85
2018-03-04T06:29:37.572Z,79.80
2018-03-04T06:32:08.131Z,77.78
2018-03-04T06:34:41.652Z,80.10
2018-03-04T06:37:13.204Z,80.07
2018-03-04T06:39:47.000Z,79.90
2018-03-04T06:42:20.344Z,78.00
2018-03-04T06:44:50.883Z,78.32
2018-03-04T06:47:25.569Z,74.80
2018-03-04T06:49:57.342Z,74.78
2018-03-04T06:52:28.693Z,75.68
2018-03-04T06:54:59.674Z,74.75
2018-03-04T06:57:31.319Z,75.03
2018-03-04T07:00:02.128Z,76.82
2018-03-04T07:02:33.519Z,76.17
2018-03-04T07:05:04.821Z,72.97
2018-03-04T07:07:35.810Z,74.40
2018-03-04T07:10:06.134Z,77.60
2018-03-04T07:12:39.289Z,77.28
2018-03-04T07:15:09.961Z,76.60
2018-03-04T07:17:41.269Z,69.15
2018-03-04T07:20:14.795Z,69.43
2018-03-04T07:22:45.380Z,65.18
2018-03-04T07:25:15.935Z,68.78
2018-03-04T07:27:47.256Z,75.28
2018-03-04T07:30:20.353Z,74.70
2018-03-04T07:32:50.894Z,72.82
2018-03-04T07:35:22.613Z,67.40
2018-03-04T07:37:56.844Z,66.07
2018-03-04T07:40:27.589Z,61.03
2018-03-04T07:42:58.565Z,63.80
2018-03-04T07:45:32.820Z,43.77
2018-03-04T07:48:08.451Z,31.60
2018-03-04T07:50:40.016Z,32.00
2018-03-04T07:53:10.817Z,28.55
2018-03-04T07:55:41.175Z,32.85
2018-03-04T07:58:17.624Z,29.00
2018-03-04T08:00:48.396Z,27.80
2018-03-04T08:03:27.041Z,28.83
2018-03-04T08:06:10.427Z,28.30
2018-03-04T08:08:45.134Z,26.42
2018-03-04T08:11:17.728Z,24.63
2018-03-04T08:13:48.334Z,25.58
2018-03-04T08:16:21.675Z,24.42
2018-03-04T08:18:52.169Z,24.98
2018-03-04T08:21:25.135Z,24.40
2018-03-04T08:23:56.007Z,24.10
2018-03-04T08:27:40.325Z,23.52
2018-03-04T08:30:17.360Z,22.05
2018-03-04T08:32:49.126Z,22.80
2018-03-04T08:35:28.850Z,20.30
2018-03-04T08:38:00.926Z,20.60
2018-03-04T08:40:38.672Z,18.60
2018-03-04T08:43:09.578Z,19.10
2018-03-04T08:45:40.462Z,20.25
2018-03-04T08:48:13.251Z,18.42
2018-03-04T08:50:44.176Z,16.77
2018-03-04T08:53:18.191Z,18.00
2018-03-04T08:55:50.770Z,18.33
2018-03-04T08:58:24.732Z,20.42
2018-03-04T09:00:56.493Z,21.10
2018-03-04T09:03:27.194Z,19.12
2018-03-04T09:06:01.123Z,15.93
2018-03-04T09:08:32.831Z,14.10
2018-03-04T09:11:06.666Z,13.40
2018-03-04T09:13:40.821Z,14.70
2018-03-04T09:16:13.944Z,15.00
2018-03-04T09:18:46.665Z,13.85
2018-03-04T09:21:19.508Z,14.07
2018-03-04T09:23:56.944Z,12.93
2018-03-04T09:26:28.947Z,12.53
2018-03-04T09:29:04.684Z,11.73
2018-03-04T09:31:38.998Z,10.10
2018-03-04T09:34:10.140Z,32.47
2018-03-04T09:36:40.371Z,29.23
2018-03-04T09:39:12.547Z,29.35
2018-03-04T09:41:42.763Z,28.83
2018-03-04T09:44:14.076Z,26.80
2018-03-04T09:46:47.288Z,28.42
2018-03-04T09:49:18.227Z,24.45
2018-03-04T09:51:48.556Z,23.83
2018-03-04T09:54:19.172Z,24.15
2018-03-04T09:56:54.209Z,25.83
2018-03-04T09:59:34.690Z,21.98
2018-03-04T10:02:06.089Z,25.80
2018-03-04T10:08:17.652Z,26.27
2018-03-04T10:10:50.315Z,27.00
2018-03-04T10:13:24.509Z,30.58
2018-03-04T10:15:54.903Z,33.58
2018-03-04T10:18:25.062Z,29.25
2018-03-04T10:20:55.343Z,29.35
2018-03-04T10:23:26.320Z,29.52
2018-03-04T10:25:56.637Z,31.47
2018-03-04T10:28:27.031Z,31.02
2018-03-04T10:30:57.831Z,29.48
2018-03-04T10:33:28.813Z,31.23
2018-03-04T10:35:59.279Z,29.30
2018-03-04T10:38:31.546Z,25.62
2018-03-04T10:41:56.132Z,25.12
2018-03-04T10:44:26.838Z,23.42
2018-03-04T10:47:18.947Z,23.90
2018-03-04T10:49:49.320Z,27.57
2018-03-04T10:52:20.551Z,27.58
2018-03-04T10:54:56.060Z,26.33
2018-03-04T10:57:38.246Z,26.17
2018-03-04T11:00:13.794Z,30.70
2018-03-04T11:04:19.475Z,30.10
2018-03-04T11:15:59.259Z,29.50
2018-03-04T11:18:47.065Z,29.73
2018-03-04T11:21:21.031Z,28.30
2018-03-04T11:23:52.647Z,29.87
2018-03-04T11:26:23.176Z,32.53
2018-03-04T11:28:54.170Z,32.40
2018-03-04T11:31:34.889Z,31.20
2018-03-04T11:34:28.321Z,32.05
2018-03-04T11:37:00.202Z,30.57
2018-03-04T11:39:30.263Z,30.85
2018-03-04T11:43:01.903Z,32.03
2018-03-04T11:45:53.753Z,30.85
2018-03-04T11:49:20.613Z,33.17
2018-03-04T11:51:51.019Z,30.67
2018-03-04T11:54:22.234Z,30.58
2018-03-04T11:56:53.992Z,30.03
2018-03-04T12:02:26.863Z,27.65
2018-03-04T12:04:56.982Z,28.98
2018-03-04T12:07:29.858Z,28.00
2018-03-04T12:10:00.237Z,27.62
2018-03-04T12:12:32.041Z,26.90
2018-03-04T12:15:03.267Z,27.67
2018-03-04T12:17:39.856Z,27.73
2018-03-04T12:20:13.584Z,28.10
2018-03-04T12:22:45.999Z,27.27
2018-03-04T12:25:17.119Z,24.90
2018-03-04T12:27:47.372Z,27.33
2018-03-04T12:30:17.901Z,28.12
2018-03-04T12:33:00.237Z,28.27
2018-03-04T12:35:43.915Z,25.52
2018-03-04T12:38:27.189Z,24.60
2018-03-04T12:40:58.559Z,24.05
2018-03-04T12:43:30.374Z,21.75
2018-03-04T12:46:01.274Z,23.10
2018-03-04T12:51:46.582Z,23.02
2018-03-04T13:01:36.584Z,24.30
2018-03-04T13:04:06.957Z,25.40
2018-03-04T13:07:08.274Z,26.35
2018-03-04T13:09:48.496Z,26.55
2018-03-04T13:12:19.260Z,24.83
2018-03-04T13:14:56.820Z,27.50
2018-03-04T13:17:31.745Z,27.80
2018-03-04T13:20:02.823Z,25.00
2018-03-04T13:22:34.094Z,26.60
2018-03-04T13:25:04.519Z,27.05
2018-03-04T13:27:54.587Z,24.70
2018-03-04T13:30:27.442Z,22.70
2018-03-04T13:33:03.610Z,21.75
2018-03-04T13:35:36.514Z,22.62
2018-03-04T13:38:28.487Z,21.42
2018-03-04T13:41:22.288Z,20.88
2018-03-04T13:43:57.758Z,20.73
2018-03-04T13:46:29.812Z,20.08
2018-03-04T13:49:00.425Z,17.58
2018-03-04T13:51:38.057Z,19.35
2018-03-04T13:54:09.211Z,20.13
2018-03-04T13:56:40.531Z,21.08
2018-03-04T13:59:27.499Z,19.00
2018-03-04T14:01:58.052Z,20.73
2018-03-04T14:04:28.455Z,20.17
2018-03-04T14:07:32.869Z,20.27
2018-03-04T14:10:12.986Z,19.00
2018-03-04T14:12:44.352Z,19.10
2018-03-04T14:15:21.902Z,19.90
2018-03-04T14:18:46.425Z,20.62
2018-03-04T14:21:37.038Z,19.58
2018-03-04T14:24:17.412Z,20.88
2018-03-04T14:26:47.797Z,21.90
2018-03-04T14:29:19.064Z,21.70
2018-03-04T14:31:52.425Z,20.20
2018-03-04T14:34:23.063Z,21.65
2018-03-04T14:36:54.526Z,21.02
2018-03-04T14:39:26.683Z,24.77
2018-03-04T14:41:56.780Z,23.45
2018-03-04T14:44:36.036Z,25.15
2018-03-04T14:47:12.720Z,22.10
2018-03-04T14:53:30.957Z,21.65
2018-03-04T14:59:43.512Z,24.92
2018-03-04T15:02:14.788Z,23.70
2018-03-04T15:04:51.166Z,24.30
2018-03-04T15:07:42.686Z,25.88
2018-03-04T15:10:12.972Z,24.48
2018-03-04T15:12:45.976Z,26.05
2018-03-04T15:15:16.605Z,26.27
2018-03-04T15:17:46.734Z,26.52
2018-03-04T15:20:17.166Z,28.55
2018-03-04T15:22:47.300Z,29.20
2018-03-04T15:25:18.184Z,29.48
2018-03-04T15:27:49.039Z,32.08
2018-03-04T15:30:21.113Z,32.70
2018-03-04T15:32:51.216Z,30.50
2018-03-04T15:35:21.376Z,31.55
2018-03-04T15:37:51.456Z,27.87
2018-03-04T15:40:21.542Z,27.13
2018-03-04T15:43:08.330Z,27.42
2018-03-04T15:45:39.992Z,27.13
2018-03-04T15:48:10.794Z,27.17
2018-03-04T15:50:41.201Z,27.33
2018-03-04T15:53:18.945Z,27.10
2018-03-04T15:55:49.311Z,27.40
2018-03-04T15:58:19.452Z,26.75
2018-03-04T16:00:52.578Z,28.15
2018-03-04T16:03:23.853Z,27.10
2018-03-04T16:05:55.311Z,29.40
2018-03-04T16:08:44.075Z,27.65
2018-03-04T16:11:15.318Z,27.50
2018-03-04T16:14:07.248Z,28.92
2018-03-04T16:20:42.618Z,30.10
2018-03-04T16:23:13.114Z,30.27
2018-03-04T16:25:43.252Z,30.52
2018-03-04T16:28:17.639Z,31.12
2018-03-04T16:30:52.625Z,31.05
2018-03-04T16:33:30.107Z,32.20
2018-03-04T16:36:01.247Z,32.00
2018-03-04T16:38:33.483Z,32.10
2018-03-04T16:41:04.352Z,32.65
2018-03-04T16:43:34.501Z,33.33
2018-03-04T16:46:04.818Z,32.78
2018-03-04T16:48:34.916Z,32.65
2018-03-04T16:51:05.039Z,34.55
2018-03-04T16:53:35.500Z,33.40
2018-03-04T16:56:06.164Z,31.55
2018-03-04T16:58:36.554Z,33.40
2018-03-04T17:01:07.385Z,32.00
2018-03-04T17:03:37.530Z,34.65
2018-03-04T17:06:08.435Z,31.05
2018-03-04T17:08:39.196Z,30.58
2018-03-04T17:11:09.402Z,30.70
2018-03-04T17:13:39.623Z,30.33
2018-03-04T17:16:17.639Z,29.43
2018-03-04T17:18:57.045Z,30.15
2018-03-04T17:21:27.978Z,31.37
2018-03-04T17:23:58.294Z,33.92
2018-03-04T17:26:31.885Z,32.53
2018-03-04T17:29:03.235Z,32.30
2018-03-04T17:31:34.040Z,32.95
2018-03-04T17:34:06.834Z,35.58
2018-03-04T17:36:38.814Z,35.37
2018-03-04T17:39:10.095Z,32.22
2018-03-04T17:44:23.146Z,27.15
2018-03-04T17:46:57.811Z,25.27
2018-03-04T17:49:31.242Z,26.12
2018-03-04T17:52:09.533Z,26.30
2018-03-04T17:54:54.289Z,29.50
2018-03-04T17:57:26.969Z,29.87
2018-03-04T17:59:59.418Z,32.60
2018-03-04T18:03:57.311Z,36.28
2018-03-04T18:06:28.676Z,33.05
2018-03-04T18:08:59.679Z,39.08
2018-03-04T18:11:30.206Z,37.97
2018-03-04T18:14:00.756Z,35.30
2018-03-04T18:16:33.907Z,33.33
2018-03-04T18:19:05.531Z,34.58
2018-03-04T18:21:40.543Z,28.17
2018-03-04T18:24:40.797Z,31.50
2018-03-04T18:27:21.360Z,28.90
2018-03-04T18:29:56.919Z,30.90
2018-03-04T18:32:27.328Z,29.65
2018-03-04T18:34:58.390Z,29.43
2018-03-04T18:37:29.392Z,31.40
2018-03-04T18:40:04.642Z,30.02
2018-03-04T18:42:36.373Z,35.22
2018-03-04T18:45:06.969Z,31.85
2018-03-04T18:47:44.686Z,35.80
2018-03-04T18:50:16.631Z,41.85
2018-03-04T18:52:47.483Z,41.20
2018-03-04T18:55:18.523Z,41.37
2018-03-04T18:57:50.981Z,41.45
2018-03-04T19:00:21.295Z,40.50
2018-03-04T19:02:51.936Z,30.30
2018-03-04T19:05:22.429Z,34.00
2018-03-04T19:07:52.644Z,32.15
2018-03-04T19:10:25.131Z,29.50
2018-03-04T19:12:55.720Z,31.83
2018-03-04T19:15:26.916Z,39.23
2018-03-04T19:17:58.175Z,38.65
2018-03-04T19:20:31.305Z,33.70
2018-03-04T19:23:02.208Z,34.50
2018-03-04T19:25:35.155Z,40.13
2018-03-04T19:28:05.663Z,40.42
2018-03-04T19:30:36.052Z,39.20
2018-03-04T19:33:07.407Z,40.63
2018-03-04T19:35:38.092Z,25.45
2018-03-04T19:38:10.679Z,20.62
2018-03-04T19:40:42.169Z,17.60
2018-03-04T19:43:13.523Z,14.55
2018-03-04T19:45:44.347Z,16.30
2018-03-04T19:48:15.327Z,16.35
2018-03-04T19:52:05.635Z,17.45
2018-03-04T19:54:36.853Z,20.30
2018-03-04T19:57:07.426Z,25.57
2018-03-04T19:59:39.710Z,23.40
2018-03-04T20:02:36.644Z,23.40
2018-03-04T20:05:07.618Z,23.73
2018-03-04T20:07:37.932Z,23.35
2018-03-04T20:10:08.599Z,27.10
2018-03-04T20:12:41.946Z,27.65
2018-03-04T20:15:12.258Z,33.88
2018-03-04T20:17:44.018Z,32.00
2018-03-04T20:20:14.735Z,31.15
2018-03-04T20:22:45.866Z,35.58
2018-03-04T20:25:17.519Z,34.23
2018-03-04T20:27:49.843Z,36.47
2018-03-04T20:30:20.128Z,35.00
2018-03-04T20:32:51.193Z,35.38
2018-03-04T20:35:23.331Z,33.05
2018-03-04T20:37:54.168Z,32.10
2018-03-04T20:40:25.228Z,29.17
2018-03-04T20:43:04.333Z,30.52
2018-03-04T20:45:36.702Z,32.08
2018-03-04T20:48:08.477Z,36.38
2018-03-04T20:50:57.753Z,33.20
2018-03-04T20:53:29.019Z,32.20
2018-03-04T20:55:59.358Z,31.87
2018-03-04T20:58:32.901Z,32.30
2018-03-04T21:01:03.822Z,34.58
2018-03-04T21:03:34.131Z,33.90
2018-03-04T21:06:04.375Z,33.78
2018-03-04T21:08:34.958Z,32.38
2018-03-04T21:11:05.338Z,32.78
2018-03-04T21:13:35.482Z,33.75
2018-03-04T21:16:07.728Z,35.53
2018-03-04T21:18:41.149Z,34.33
2018-03-04T21:21:11.795Z,33.50
2018-03-04T21:23:43.971Z,32.17
2018-03-04T21:26:14.935Z,31.27
2018-03-04T21:28:45.315Z,30.47
2018-03-04T21:31:15.467Z,31.20
2018-03-04T21:33:45.600Z,31.55
2018-03-04T21:36:17.547Z,30.30
2018-03-04T21:38:55.184Z,32.25
2018-03-04T21:41:27.982Z,34.28
2018-03-04T21:44:01.967Z,33.75
2018-03-04T21:46:32.474Z,31.45
2018-03-04T21:49:03.068Z,34.65
2018-03-04T21:51:34.770Z,32.05
2018-03-04T21:54:06.134Z,30.40
2018-03-04T21:56:36.860Z,31.27
2018-03-04T21:59:07.883Z,32.72
2018-03-04T22:01:38.031Z,31.12
2018-03-04T22:04:08.956Z,32.87
2018-03-04T22:06:40.145Z,33.90
2018-03-04T22:09:10.745Z,34.10
2018-03-04T22:11:40.880Z,32.20
2018-03-04T22:14:11.141Z,30.60
2018-03-04T22:16:43.007Z,31.65
2018-03-04T22:19:13.884Z,29.07
2018-03-04T22:21:44.296Z,28.75
2018-03-04T22:24:14.377Z,27.65
2018-03-04T22:26:45.481Z,25.83
2018-03-04T22:29:16.594Z,24.90
2018-03-04T22:31:46.685Z,25.10
2018-03-04T22:34:17.539Z,24.80
2018-03-04T22:36:48.132Z,24.70
2018-03-04T22:39:18.192Z,20.13
2018-03-04T22:41:48.413Z,20.62
2018-03-04T22:44:18.619Z,20.77
2018-03-04T22:46:53.508Z,21.40
2018-03-04T22:49:25.560Z,23.73
2018-03-04T22:51:56.084Z,23.30
2018-03-04T22:54:26.725Z,21.05
2018-03-04T22:56:57.259Z,19.47
2018-03-04T22:59:27.872Z,16.20
2018-03-04T23:01:58.209Z,11.80
2018-03-04T23:04:29.158Z,8.40
2018-03-04T23:06:59.504Z,12.77
2018-03-04T23:09:31.012Z,13.07
2018-03-04T23:12:01.352Z,15.30
2018-03-04T23:14:31.453Z,15.40
2018-03-04T23:17:02.791Z,16.42
2018-03-04T23:19:33.367Z,15.70
2018-03-04T23:22:04.834Z,16.42
2018-03-04T23:24:35.644Z,13.40
2018-03-04T23:27:06.526Z,14.52
2018-03-04T23:29:37.007Z,13.35
2018-03-04T23:32:08.298Z,13.83
2018-03-04T23:34:38.760Z,14.38
2018-03-04T23:37:09.077Z,13.15
2018-03-04T23:39:39.448Z,10.48
2018-03-04T23:42:09.520Z,7.53
2018-03-04T23:44:40.403Z,8.88
2018-03-04T23:47:10.648Z,14.43
2018-03-04T23:49:40.753Z,18.33
2018-03-04T23:52:10.988Z,23.70
2018-03-04T23:54:41.167Z,23.90
2018-03-04T23:57:11.385Z,21.83
2018-03-04T23:59:41.532Z,23.35
